sensor_id;sensor_type;location;lat;lon;timestamp;P1;durP1;ratioP1;P2;durP2;ratioP2
19623;SDS011;9959;49.798;9.928;2023-05-07T00:01:38;11.10;;;6.70;;
19623;SDS011;9959;49.798;9.928;2023-05-07T00:04:05;10.82;;;6.88;;
19623;SDS011;9959;49.798;9.928;2023-05-07T00:06:34;13.98;;;6.32;;
19623;SDS011;9959;49.798;9.928;2023-05-07T00:09:01;9.52;;;6.45;;
19623;SDS011;9959;49.798;9.928;2023-05-07T00:11:27;7.68;;;5.68;;
19623;SDS011;9959;49.798;9.928;2023-05-07T00:13:54;10.10;;;6.90;;
19623;SDS011;9959;49.798;9.928;2023-05-07T00:16:21;13.50;;;6.07;;
19623;SDS011;9959;49.798;9.928;2023-05-07T00:18:48;11.40;;;6.15;;
19623;SDS011;9959;49.798;9.928;2023-05-07T00:21:15;9.45;;;6.00;;
19623;SDS011;9959;49.798;9.928;2023-05-07T00:23:42;10.40;;;6.25;;
19623;SDS011;9959;49.798;9.928;2023-05-07T00:26:09;11.82;;;6.43;;
19623;SDS011;9959;49.798;9.928;2023-05-07T00:28:36;11.82;;;6.03;;
19623;SDS011;9959;49.798;9.928;2023-05-07T00:31:02;9.93;;;6.07;;
19623;SDS011;9959;49.798;9.928;2023-05-07T00:33:29;9.27;;;6.10;;
19623;SDS011;9959;49.798;9.928;2023-05-07T00:35:56;8.98;;;6.03;;
19623;SDS011;9959;49.798;9.928;2023-05-07T00:38:23;7.68;;;5.47;;
19623;SDS011;9959;49.798;9.928;2023-05-07T00:40:50;9.43;;;5.25;;
19623;SDS011;9959;49.798;9.928;2023-05-07T00:43:17;6.18;;;5.28;;
19623;SDS011;9959;49.798;9.928;2023-05-07T00:45:44;10.48;;;5.65;;
19623;SDS011;9959;49.798;9.928;2023-05-07T00:48:11;10.77;;;5.60;;
19623;SDS011;9959;49.798;9.928;2023-05-07T00:50:40;9.75;;;5.82;;
19623;SDS011;9959;49.798;9.928;2023-05-07T00:53:07;12.13;;;6.05;;
19623;SDS011;9959;49.798;9.928;2023-05-07T00:55:34;8.30;;;5.70;;
19623;SDS011;9959;49.798;9.928;2023-05-07T00:58:02;7.97;;;5.90;;
19623;SDS011;9959;49.798;9.928;2023-05-07T01:00:29;11.52;;;6.50;;
19623;SDS011;9959;49.798;9.928;2023-05-07T01:02:57;9.00;;;5.60;;
19623;SDS011;9959;49.798;9.928;2023-05-07T01:05:24;8.00;;;5.38;;
19623;SDS011;9959;49.798;9.928;2023-05-07T01:07:54;11.38;;;5.70;;
19623;SDS011;9959;49.798;9.928;2023-05-07T01:10:22;10.00;;;5.38;;
19623;SDS011;9959;49.798;9.928;2023-05-07T01:12:49;9.15;;;5.57;;
19623;SDS011;9959;49.798;9.928;2023-05-07T01:15:16;6.32;;;5.35;;
19623;SDS011;9959;49.798;9.928;2023-05-07T01:17:44;8.40;;;5.13;;
19623;SDS011;9959;49.798;9.928;2023-05-07T01:20:11;8.80;;;5.25;;
19623;SDS011;9959;49.798;9.928;2023-05-07T01:22:39;9.07;;;6.00;;
19623;SDS011;9959;49.798;9.928;2023-05-07T01:25:06;9.55;;;5.78;;
19623;SDS011;9959;49.798;9.928;2023-05-07T01:27:34;7.13;;;5.45;;
19623;SDS011;9959;49.798;9.928;2023-05-07T01:30:04;8.15;;;5.25;;
19623;SDS011;9959;49.798;9.928;2023-05-07T01:35:07;8.27;;;5.78;;
19623;SDS011;9959;49.798;9.928;2023-05-07T01:37:38;8.85;;;5.78;;
19623;SDS011;9959;49.798;9.928;2023-05-07T01:40:06;11.50;;;6.05;;
19623;SDS011;9959;49.798;9.928;2023-05-07T01:42:34;9.65;;;5.60;;
19623;SDS011;9959;49.798;9.928;2023-05-07T01:45:02;10.77;;;5.95;;
19623;SDS011;9959;49.798;9.928;2023-05-07T01:47:29;9.35;;;5.25;;
19623;SDS011;9959;49.798;9.928;2023-05-07T01:49:57;8.38;;;5.82;;
19623;SDS011;9959;49.798;9.928;2023-05-07T01:52:24;7.32;;;5.63;;
19623;SDS011;9959;49.798;9.928;2023-05-07T01:54:51;10.68;;;5.53;;
19623;SDS011;9959;49.798;9.928;2023-05-07T01:57:18;11.30;;;5.88;;
19623;SDS011;9959;49.798;9.928;2023-05-07T01:59:45;9.20;;;5.60;;
19623;SDS011;9959;49.798;9.928;2023-05-07T02:02:11;8.48;;;5.60;;
19623;SDS011;9959;49.798;9.928;2023-05-07T02:04:38;10.80;;;5.63;;
19623;SDS011;9959;49.798;9.928;2023-05-07T02:07:05;7.85;;;4.80;;
19623;SDS011;9959;49.798;9.928;2023-05-07T02:09:32;6.90;;;5.20;;
19623;SDS011;9959;49.798;9.928;2023-05-07T02:11:59;6.35;;;5.15;;
19623;SDS011;9959;49.798;9.928;2023-05-07T02:14:26;8.13;;;5.47;;
19623;SDS011;9959;49.798;9.928;2023-05-07T02:16:52;7.93;;;5.93;;
19623;SDS011;9959;49.798;9.928;2023-05-07T02:19:19;9.95;;;5.68;;
19623;SDS011;9959;49.798;9.928;2023-05-07T02:21:47;8.88;;;5.50;;
19623;SDS011;9959;49.798;9.928;2023-05-07T02:24:14;7.20;;;5.15;;
19623;SDS011;9959;49.798;9.928;2023-05-07T02:26:41;7.75;;;5.40;;
19623;SDS011;9959;49.798;9.928;2023-05-07T02:29:08;8.60;;;5.70;;
19623;SDS011;9959;49.798;9.928;2023-05-07T02:31:34;8.27;;;6.05;;
19623;SDS011;9959;49.798;9.928;2023-05-07T02:34:01;12.13;;;5.22;;
19623;SDS011;9959;49.798;9.928;2023-05-07T02:36:28;5.95;;;4.88;;
19623;SDS011;9959;49.798;9.928;2023-05-07T02:38:58;8.13;;;4.90;;
19623;SDS011;9959;49.798;9.928;2023-05-07T02:41:25;9.50;;;5.30;;
19623;SDS011;9959;49.798;9.928;2023-05-07T02:43:52;6.75;;;4.93;;
19623;SDS011;9959;49.798;9.928;2023-05-07T02:46:18;9.98;;;5.07;;
19623;SDS011;9959;49.798;9.928;2023-05-07T02:48:45;8.13;;;4.97;;
19623;SDS011;9959;49.798;9.928;2023-05-07T02:51:12;8.20;;;5.35;;
19623;SDS011;9959;49.798;9.928;2023-05-07T02:53:39;8.10;;;4.80;;
19623;SDS011;9959;49.798;9.928;2023-05-07T02:56:06;8.93;;;5.03;;
19623;SDS011;9959;49.798;9.928;2023-05-07T02:58:33;7.80;;;5.47;;
19623;SDS011;9959;49.798;9.928;2023-05-07T03:01:00;6.18;;;4.78;;
19623;SDS011;9959;49.798;9.928;2023-05-07T03:03:26;7.78;;;5.30;;
19623;SDS011;9959;49.798;9.928;2023-05-07T03:05:53;10.35;;;5.28;;
19623;SDS011;9959;49.798;9.928;2023-05-07T03:08:20;7.45;;;5.07;;
19623;SDS011;9959;49.798;9.928;2023-05-07T03:10:47;5.95;;;5.07;;
19623;SDS011;9959;49.798;9.928;2023-05-07T03:13:14;7.47;;;4.93;;
19623;SDS011;9959;49.798;9.928;2023-05-07T03:15:41;6.47;;;4.80;;
19623;SDS011;9959;49.798;9.928;2023-05-07T03:18:08;9.65;;;5.35;;
19623;SDS011;9959;49.798;9.928;2023-05-07T03:20:35;8.68;;;4.70;;
19623;SDS011;9959;49.798;9.928;2023-05-07T03:23:02;6.30;;;4.70;;
19623;SDS011;9959;49.798;9.928;2023-05-07T03:25:29;13.90;;;4.90;;
19623;SDS011;9959;49.798;9.928;2023-05-07T03:27:56;6.63;;;4.60;;
19623;SDS011;9959;49.798;9.928;2023-05-07T03:30:23;10.02;;;4.88;;
19623;SDS011;9959;49.798;9.928;2023-05-07T03:32:50;6.05;;;4.95;;
19623;SDS011;9959;49.798;9.928;2023-05-07T03:35:17;9.27;;;4.90;;
19623;SDS011;9959;49.798;9.928;2023-05-07T03:37:44;6.70;;;4.95;;
19623;SDS011;9959;49.798;9.928;2023-05-07T03:40:11;6.15;;;5.05;;
19623;SDS011;9959;49.798;9.928;2023-05-07T03:42:39;7.93;;;5.05;;
19623;SDS011;9959;49.798;9.928;2023-05-07T03:45:06;6.80;;;5.40;;
19623;SDS011;9959;49.798;9.928;2023-05-07T03:47:33;9.18;;;5.80;;
19623;SDS011;9959;49.798;9.928;2023-05-07T03:50:00;9.50;;;5.57;;
19623;SDS011;9959;49.798;9.928;2023-05-07T03:52:27;11.73;;;5.82;;
19623;SDS011;9959;49.798;9.928;2023-05-07T03:54:54;7.35;;;5.60;;
19623;SDS011;9959;49.798;9.928;2023-05-07T03:57:21;7.68;;;5.70;;
19623;SDS011;9959;49.798;9.928;2023-05-07T03:59:48;10.77;;;6.72;;
19623;SDS011;9959;49.798;9.928;2023-05-07T04:02:15;12.05;;;7.82;;
19623;SDS011;9959;49.798;9.928;2023-05-07T04:04:42;10.82;;;7.47;;
19623;SDS011;9959;49.798;9.928;2023-05-07T04:07:09;14.00;;;8.23;;
19623;SDS011;9959;49.798;9.928;2023-05-07T04:09:36;11.00;;;7.85;;
19623;SDS011;9959;49.798;9.928;2023-05-07T04:12:03;11.63;;;8.18;;
19623;SDS011;9959;49.798;9.928;2023-05-07T04:14:30;13.23;;;7.72;;
19623;SDS011;9959;49.798;9.928;2023-05-07T04:16:58;13.02;;;9.10;;
19623;SDS011;9959;49.798;9.928;2023-05-07T04:19:25;11.38;;;8.80;;
19623;SDS011;9959;49.798;9.928;2023-05-07T04:21:52;11.75;;;8.65;;
19623;SDS011;9959;49.798;9.928;2023-05-07T04:24:19;11.18;;;8.05;;
19623;SDS011;9959;49.798;9.928;2023-05-07T04:26:46;12.05;;;8.55;;
19623;SDS011;9959;49.798;9.928;2023-05-07T04:29:13;10.98;;;8.80;;
19623;SDS011;9959;49.798;9.928;2023-05-07T04:31:40;12.25;;;9.38;;
19623;SDS011;9959;49.798;9.928;2023-05-07T04:34:07;14.68;;;9.65;;
19623;SDS011;9959;49.798;9.928;2023-05-07T04:36:33;11.82;;;8.70;;
19623;SDS011;9959;49.798;9.928;2023-05-07T04:39:02;13.65;;;9.43;;
19623;SDS011;9959;49.798;9.928;2023-05-07T04:41:29;15.45;;;10.07;;
19623;SDS011;9959;49.798;9.928;2023-05-07T04:43:55;14.05;;;9.43;;
19623;SDS011;9959;49.798;9.928;2023-05-07T04:46:25;11.60;;;9.40;;
19623;SDS011;9959;49.798;9.928;2023-05-07T04:48:52;13.52;;;10.07;;
19623;SDS011;9959;49.798;9.928;2023-05-07T04:51:19;13.45;;;9.43;;
19623;SDS011;9959;49.798;9.928;2023-05-07T04:53:45;12.65;;;9.82;;
19623;SDS011;9959;49.798;9.928;2023-05-07T04:56:12;14.55;;;9.38;;
19623;SDS011;9959;49.798;9.928;2023-05-07T04:58:39;14.90;;;10.18;;
19623;SDS011;9959;49.798;9.928;2023-05-07T05:01:06;13.38;;;10.07;;
19623;SDS011;9959;49.798;9.928;2023-05-07T05:03:33;12.00;;;9.57;;
19623;SDS011;9959;49.798;9.928;2023-05-07T05:06:00;12.50;;;9.20;;
19623;SDS011;9959;49.798;9.928;2023-05-07T05:08:27;13.45;;;9.88;;
19623;SDS011;9959;49.798;9.928;2023-05-07T05:10:54;12.93;;;9.40;;
19623;SDS011;9959;49.798;9.928;2023-05-07T05:13:21;14.80;;;9.98;;
19623;SDS011;9959;49.798;9.928;2023-05-07T05:15:48;13.27;;;9.75;;
19623;SDS011;9959;49.798;9.928;2023-05-07T05:18:15;14.55;;;9.93;;
19623;SDS011;9959;49.798;9.928;2023-05-07T05:20:41;12.13;;;9.65;;
19623;SDS011;9959;49.798;9.928;2023-05-07T05:23:08;13.20;;;9.55;;
19623;SDS011;9959;49.798;9.928;2023-05-07T05:25:35;11.70;;;9.07;;
19623;SDS011;9959;49.798;9.928;2023-05-07T05:28:02;13.70;;;9.70;;
19623;SDS011;9959;49.798;9.928;2023-05-07T05:30:29;12.68;;;10.07;;
19623;SDS011;9959;49.798;9.928;2023-05-07T05:32:55;12.45;;;9.68;;
19623;SDS011;9959;49.798;9.928;2023-05-07T05:35:22;16.13;;;10.05;;
19623;SDS011;9959;49.798;9.928;2023-05-07T05:37:49;15.30;;;10.10;;
19623;SDS011;9959;49.798;9.928;2023-05-07T05:40:16;12.88;;;9.80;;
19623;SDS011;9959;49.798;9.928;2023-05-07T05:42:43;13.30;;;10.30;;
19623;SDS011;9959;49.798;9.928;2023-05-07T05:45:10;11.40;;;9.38;;
19623;SDS011;9959;49.798;9.928;2023-05-07T05:47:37;14.50;;;9.63;;
19623;SDS011;9959;49.798;9.928;2023-05-07T05:50:04;13.68;;;10.00;;
19623;SDS011;9959;49.798;9.928;2023-05-07T05:52:32;11.55;;;9.40;;
19623;SDS011;9959;49.798;9.928;2023-05-07T05:54:59;15.48;;;10.07;;
19623;SDS011;9959;49.798;9.928;2023-05-07T05:57:26;17.30;;;10.10;;
19623;SDS011;9959;49.798;9.928;2023-05-07T05:59:54;12.45;;;10.10;;
19623;SDS011;9959;49.798;9.928;2023-05-07T06:02:21;13.70;;;10.27;;
19623;SDS011;9959;49.798;9.928;2023-05-07T06:04:48;15.73;;;10.55;;
19623;SDS011;9959;49.798;9.928;2023-05-07T06:07:15;13.25;;;10.38;;
19623;SDS011;9959;49.798;9.928;2023-05-07T06:09:42;13.35;;;9.50;;
19623;SDS011;9959;49.798;9.928;2023-05-07T06:12:08;13.93;;;10.45;;
19623;SDS011;9959;49.798;9.928;2023-05-07T06:14:35;12.18;;;9.98;;
19623;SDS011;9959;49.798;9.928;2023-05-07T06:17:02;13.63;;;10.05;;
19623;SDS011;9959;49.798;9.928;2023-05-07T06:19:29;16.40;;;10.82;;
19623;SDS011;9959;49.798;9.928;2023-05-07T06:21:56;17.67;;;9.40;;
19623;SDS011;9959;49.798;9.928;2023-05-07T06:24:23;11.05;;;9.38;;
19623;SDS011;9959;49.798;9.928;2023-05-07T06:26:51;14.32;;;9.98;;
19623;SDS011;9959;49.798;9.928;2023-05-07T06:29:17;12.27;;;9.93;;
19623;SDS011;9959;49.798;9.928;2023-05-07T06:31:44;15.02;;;10.02;;
19623;SDS011;9959;49.798;9.928;2023-05-07T06:34:11;13.05;;;9.55;;
19623;SDS011;9959;49.798;9.928;2023-05-07T06:36:40;15.32;;;10.20;;
19623;SDS011;9959;49.798;9.928;2023-05-07T06:39:07;14.52;;;9.60;;
19623;SDS011;9959;49.798;9.928;2023-05-07T06:41:34;13.77;;;9.70;;
19623;SDS011;9959;49.798;9.928;2023-05-07T06:44:02;12.88;;;10.05;;
19623;SDS011;9959;49.798;9.928;2023-05-07T06:46:29;12.27;;;9.95;;
19623;SDS011;9959;49.798;9.928;2023-05-07T06:48:56;16.38;;;9.90;;
19623;SDS011;9959;49.798;9.928;2023-05-07T06:51:23;13.30;;;9.98;;
19623;SDS011;9959;49.798;9.928;2023-05-07T06:53:50;13.23;;;10.50;;
19623;SDS011;9959;49.798;9.928;2023-05-07T06:56:17;13.35;;;9.70;;
19623;SDS011;9959;49.798;9.928;2023-05-07T06:58:43;11.82;;;9.40;;
19623;SDS011;9959;49.798;9.928;2023-05-07T07:01:10;13.38;;;10.43;;
19623;SDS011;9959;49.798;9.928;2023-05-07T07:03:37;12.68;;;10.30;;
19623;SDS011;9959;49.798;9.928;2023-05-07T07:06:04;13.60;;;10.35;;
19623;SDS011;9959;49.798;9.928;2023-05-07T07:08:31;12.43;;;9.95;;
19623;SDS011;9959;49.798;9.928;2023-05-07T07:10:57;17.15;;;10.00;;
19623;SDS011;9959;49.798;9.928;2023-05-07T07:13:24;13.27;;;10.23;;
19623;SDS011;9959;49.798;9.928;2023-05-07T07:15:51;12.18;;;9.60;;
19623;SDS011;9959;49.798;9.928;2023-05-07T07:18:19;12.07;;;10.05;;
19623;SDS011;9959;49.798;9.928;2023-05-07T07:20:46;11.32;;;9.40;;
19623;SDS011;9959;49.798;9.928;2023-05-07T07:23:13;14.55;;;10.10;;
19623;SDS011;9959;49.798;9.928;2023-05-07T07:25:40;11.38;;;9.60;;
19623;SDS011;9959;49.798;9.928;2023-05-07T07:28:07;11.52;;;9.63;;
19623;SDS011;9959;49.798;9.928;2023-05-07T07:30:34;12.60;;;9.43;;
19623;SDS011;9959;49.798;9.928;2023-05-07T07:33:01;13.30;;;9.95;;
19623;SDS011;9959;49.798;9.928;2023-05-07T07:35:29;13.10;;;9.80;;
19623;SDS011;9959;49.798;9.928;2023-05-07T07:37:56;17.02;;;10.63;;
19623;SDS011;9959;49.798;9.928;2023-05-07T07:40:23;11.65;;;9.65;;
19623;SDS011;9959;49.798;9.928;2023-05-07T07:42:51;13.18;;;9.98;;
19623;SDS011;9959;49.798;9.928;2023-05-07T07:45:19;14.13;;;10.00;;
19623;SDS011;9959;49.798;9.928;2023-05-07T07:47:46;12.88;;;10.18;;
19623;SDS011;9959;49.798;9.928;2023-05-07T07:50:13;13.52;;;9.70;;
19623;SDS011;9959;49.798;9.928;2023-05-07T07:52:50;12.00;;;9.40;;
19623;SDS011;9959;49.798;9.928;2023-05-07T07:55:19;14.10;;;9.68;;
19623;SDS011;9959;49.798;9.928;2023-05-07T07:57:49;11.43;;;10.20;;
19623;SDS011;9959;49.798;9.928;2023-05-07T08:00:16;12.70;;;9.55;;
19623;SDS011;9959;49.798;9.928;2023-05-07T08:02:43;12.52;;;9.85;;
19623;SDS011;9959;49.798;9.928;2023-05-07T08:05:11;13.35;;;9.02;;
19623;SDS011;9959;49.798;9.928;2023-05-07T08:07:38;12.73;;;9.20;;
19623;SDS011;9959;49.798;9.928;2023-05-07T08:10:05;11.82;;;9.25;;
19623;SDS011;9959;49.798;9.928;2023-05-07T08:12:32;11.38;;;8.90;;
19623;SDS011;9959;49.798;9.928;2023-05-07T08:14:59;10.05;;;8.85;;
19623;SDS011;9959;49.798;9.928;2023-05-07T08:17:25;12.77;;;9.43;;
19623;SDS011;9959;49.798;9.928;2023-05-07T08:19:52;12.27;;;9.30;;
19623;SDS011;9959;49.798;9.928;2023-05-07T08:22:19;12.57;;;9.23;;
19623;SDS011;9959;49.798;9.928;2023-05-07T08:24:46;12.35;;;9.35;;
19623;SDS011;9959;49.798;9.928;2023-05-07T08:27:13;12.70;;;9.68;;
19623;SDS011;9959;49.798;9.928;2023-05-07T08:29:39;11.32;;;9.27;;
19623;SDS011;9959;49.798;9.928;2023-05-07T08:32:06;11.20;;;9.43;;
19623;SDS011;9959;49.798;9.928;2023-05-07T08:34:33;11.77;;;8.77;;
19623;SDS011;9959;49.798;9.928;2023-05-07T08:37:00;12.07;;;9.30;;
19623;SDS011;9959;49.798;9.928;2023-05-07T08:39:29;12.18;;;8.57;;
19623;SDS011;9959;49.798;9.928;2023-05-07T08:41:56;10.35;;;9.20;;
19623;SDS011;9959;49.798;9.928;2023-05-07T08:44:26;13.38;;;8.70;;
19623;SDS011;9959;49.798;9.928;2023-05-07T08:46:55;14.07;;;9.07;;
19623;SDS011;9959;49.798;9.928;2023-05-07T08:49:23;10.98;;;8.52;;
19623;SDS011;9959;49.798;9.928;2023-05-07T08:51:50;9.15;;;8.02;;
19623;SDS011;9959;49.798;9.928;2023-05-07T08:54:17;10.23;;;8.52;;
19623;SDS011;9959;49.798;9.928;2023-05-07T08:56:46;10.75;;;9.05;;
19623;SDS011;9959;49.798;9.928;2023-05-07T08:59:13;11.88;;;8.48;;
19623;SDS011;9959;49.798;9.928;2023-05-07T09:01:40;12.23;;;9.10;;
19623;SDS011;9959;49.798;9.928;2023-05-07T09:04:07;13.13;;;9.05;;
19623;SDS011;9959;49.798;9.928;2023-05-07T09:06:35;9.98;;;8.75;;
19623;SDS011;9959;49.798;9.928;2023-05-07T09:09:04;12.60;;;8.45;;
19623;SDS011;9959;49.798;9.928;2023-05-07T09:11:31;11.25;;;8.00;;
19623;SDS011;9959;49.798;9.928;2023-05-07T09:13:58;10.13;;;7.50;;
19623;SDS011;9959;49.798;9.928;2023-05-07T09:16:29;12.07;;;8.30;;
19623;SDS011;9959;49.798;9.928;2023-05-07T09:18:59;8.88;;;7.97;;
19623;SDS011;9959;49.798;9.928;2023-05-07T09:21:27;9.85;;;8.25;;
19623;SDS011;9959;49.798;9.928;2023-05-07T09:23:54;10.73;;;8.35;;
19623;SDS011;9959;49.798;9.928;2023-05-07T09:26:22;9.07;;;7.60;;
19623;SDS011;9959;49.798;9.928;2023-05-07T09:28:50;9.88;;;7.85;;
19623;SDS011;9959;49.798;9.928;2023-05-07T09:31:17;9.63;;;8.23;;
19623;SDS011;9959;49.798;9.928;2023-05-07T09:33:46;14.13;;;8.77;;
19623;SDS011;9959;49.798;9.928;2023-05-07T09:36:13;12.60;;;8.50;;
19623;SDS011;9959;49.798;9.928;2023-05-07T09:38:40;11.13;;;8.35;;
19623;SDS011;9959;49.798;9.928;2023-05-07T09:41:08;13.13;;;8.13;;
19623;SDS011;9959;49.798;9.928;2023-05-07T09:43:37;12.60;;;8.52;;
19623;SDS011;9959;49.798;9.928;2023-05-07T09:46:06;10.02;;;8.20;;
19623;SDS011;9959;49.798;9.928;2023-05-07T09:48:38;9.48;;;8.48;;
19623;SDS011;9959;49.798;9.928;2023-05-07T09:51:25;10.00;;;8.57;;
19623;SDS011;9959;49.798;9.928;2023-05-07T09:53:56;10.77;;;8.55;;
19623;SDS011;9959;49.798;9.928;2023-05-07T09:56:24;12.73;;;8.48;;
19623;SDS011;9959;49.798;9.928;2023-05-07T09:58:52;10.90;;;8.40;;
19623;SDS011;9959;49.798;9.928;2023-05-07T10:01:20;10.32;;;9.07;;
19623;SDS011;9959;49.798;9.928;2023-05-07T10:03:49;8.80;;;7.90;;
19623;SDS011;9959;49.798;9.928;2023-05-07T10:06:17;9.38;;;7.57;;
19623;SDS011;9959;49.798;9.928;2023-05-07T10:08:44;9.90;;;7.50;;
19623;SDS011;9959;49.798;9.928;2023-05-07T10:11:11;9.82;;;7.93;;
19623;SDS011;9959;49.798;9.928;2023-05-07T10:13:38;9.77;;;7.70;;
19623;SDS011;9959;49.798;9.928;2023-05-07T10:16:06;8.60;;;7.78;;
19623;SDS011;9959;49.798;9.928;2023-05-07T10:18:34;9.00;;;8.10;;
19623;SDS011;9959;49.798;9.928;2023-05-07T10:21:06;8.60;;;7.78;;
19623;SDS011;9959;49.798;9.928;2023-05-07T10:23:37;9.02;;;7.95;;
19623;SDS011;9959;49.798;9.928;2023-05-07T10:26:05;7.38;;;6.68;;
19623;SDS011;9959;49.798;9.928;2023-05-07T10:28:36;9.38;;;8.25;;
19623;SDS011;9959;49.798;9.928;2023-05-07T10:34:07;8.60;;;7.50;;
19623;SDS011;9959;49.798;9.928;2023-05-07T10:36:36;7.97;;;6.93;;
19623;SDS011;9959;49.798;9.928;2023-05-07T10:39:04;7.70;;;6.90;;
19623;SDS011;9959;49.798;9.928;2023-05-07T10:41:32;8.63;;;6.72;;
19623;SDS011;9959;49.798;9.928;2023-05-07T10:43:59;7.45;;;6.72;;
19623;SDS011;9959;49.798;9.928;2023-05-07T10:46:28;7.97;;;7.18;;
19623;SDS011;9959;49.798;9.928;2023-05-07T10:51:32;8.88;;;7.50;;
19623;SDS011;9959;49.798;9.928;2023-05-07T10:56:42;9.75;;;6.90;;
19623;SDS011;9959;49.798;9.928;2023-05-07T11:01:57;7.57;;;6.25;;
19623;SDS011;9959;49.798;9.928;2023-05-07T11:04:25;7.75;;;6.95;;
19623;SDS011;9959;49.798;9.928;2023-05-07T11:15:10;7.40;;;6.15;;
19623;SDS011;9959;49.798;9.928;2023-05-07T11:17:54;6.82;;;6.13;;
19623;SDS011;9959;49.798;9.928;2023-05-07T11:20:43;11.07;;;5.88;;
19623;SDS011;9959;49.798;9.928;2023-05-07T11:26:02;6.75;;;6.05;;
19623;SDS011;9959;49.798;9.928;2023-05-07T11:28:30;6.53;;;5.40;;
19623;SDS011;9959;49.798;9.928;2023-05-07T11:31:02;7.32;;;5.35;;
19623;SDS011;9959;49.798;9.928;2023-05-07T11:33:30;7.20;;;6.07;;
19623;SDS011;9959;49.798;9.928;2023-05-07T11:35:57;7.20;;;6.25;;
19623;SDS011;9959;49.798;9.928;2023-05-07T11:38:24;6.72;;;6.03;;
19623;SDS011;9959;49.798;9.928;2023-05-07T11:40:52;8.10;;;5.90;;
19623;SDS011;9959;49.798;9.928;2023-05-07T11:43:20;6.40;;;5.75;;
19623;SDS011;9959;49.798;9.928;2023-05-07T11:45:47;6.68;;;5.65;;
19623;SDS011;9959;49.798;9.928;2023-05-07T11:48:15;6.18;;;5.55;;
19623;SDS011;9959;49.798;9.928;2023-05-07T11:53:25;7.93;;;5.38;;
19623;SDS011;9959;49.798;9.928;2023-05-07T11:55:53;10.52;;;5.60;;
19623;SDS011;9959;49.798;9.928;2023-05-07T11:58:22;6.40;;;5.80;;
19623;SDS011;9959;49.798;9.928;2023-05-07T12:00:51;7.10;;;6.40;;
19623;SDS011;9959;49.798;9.928;2023-05-07T12:03:18;6.68;;;6.07;;
19623;SDS011;9959;49.798;9.928;2023-05-07T12:05:46;6.28;;;5.68;;
19623;SDS011;9959;49.798;9.928;2023-05-07T12:08:17;6.18;;;5.57;;
19623;SDS011;9959;49.798;9.928;2023-05-07T12:10:47;5.82;;;5.20;;
19623;SDS011;9959;49.798;9.928;2023-05-07T12:13:15;6.75;;;6.03;;
19623;SDS011;9959;49.798;9.928;2023-05-07T12:15:50;6.78;;;5.63;;
19623;SDS011;9959;49.798;9.928;2023-05-07T12:18:21;7.25;;;4.95;;
19623;SDS011;9959;49.798;9.928;2023-05-07T12:20:49;6.60;;;4.70;;
19623;SDS011;9959;49.798;9.928;2023-05-07T12:23:17;5.57;;;4.65;;
19623;SDS011;9959;49.798;9.928;2023-05-07T12:25:44;4.65;;;4.28;;
19623;SDS011;9959;49.798;9.928;2023-05-07T12:28:14;5.22;;;4.43;;
19623;SDS011;9959;49.798;9.928;2023-05-07T12:30:46;7.28;;;4.95;;
19623;SDS011;9959;49.798;9.928;2023-05-07T12:33:17;6.30;;;5.13;;
19623;SDS011;9959;49.798;9.928;2023-05-07T12:35:45;5.97;;;5.10;;
19623;SDS011;9959;49.798;9.928;2023-05-07T12:38:16;5.47;;;4.82;;
19623;SDS011;9959;49.798;9.928;2023-05-07T12:40:45;5.53;;;4.50;;
19623;SDS011;9959;49.798;9.928;2023-05-07T12:43:20;5.95;;;4.57;;
19623;SDS011;9959;49.798;9.928;2023-05-07T12:45:51;5.50;;;4.70;;
19623;SDS011;9959;49.798;9.928;2023-05-07T12:48:20;5.38;;;4.40;;
19623;SDS011;9959;49.798;9.928;2023-05-07T12:50:51;6.85;;;4.75;;
19623;SDS011;9959;49.798;9.928;2023-05-07T12:53:22;5.50;;;4.22;;
19623;SDS011;9959;49.798;9.928;2023-05-07T12:55:52;4.30;;;3.90;;
19623;SDS011;9959;49.798;9.928;2023-05-07T12:58:20;12.75;;;4.40;;
19623;SDS011;9959;49.798;9.928;2023-05-07T13:00:51;5.07;;;4.57;;
19623;SDS011;9959;49.798;9.928;2023-05-07T13:03:22;5.25;;;4.78;;
19623;SDS011;9959;49.798;9.928;2023-05-07T13:05:55;6.30;;;4.35;;
19623;SDS011;9959;49.798;9.928;2023-05-07T13:08:25;5.45;;;3.97;;
19623;SDS011;9959;49.798;9.928;2023-05-07T13:10:53;6.22;;;4.30;;
19623;SDS011;9959;49.798;9.928;2023-05-07T13:13:20;4.50;;;4.10;;
19623;SDS011;9959;49.798;9.928;2023-05-07T13:15:48;5.00;;;4.22;;
19623;SDS011;9959;49.798;9.928;2023-05-07T13:18:14;5.75;;;3.90;;
19623;SDS011;9959;49.798;9.928;2023-05-07T13:20:42;5.53;;;3.70;;
19623;SDS011;9959;49.798;9.928;2023-05-07T13:23:08;6.45;;;3.70;;
19623;SDS011;9959;49.798;9.928;2023-05-07T13:25:35;8.40;;;3.75;;
19623;SDS011;9959;49.798;9.928;2023-05-07T13:28:04;4.07;;;3.55;;
19623;SDS011;9959;49.798;9.928;2023-05-07T13:30:36;4.05;;;3.05;;
19623;SDS011;9959;49.798;9.928;2023-05-07T13:33:03;5.40;;;3.55;;
19623;SDS011;9959;49.798;9.928;2023-05-07T13:35:30;4.50;;;3.25;;
19623;SDS011;9959;49.798;9.928;2023-05-07T13:37:57;5.35;;;3.35;;
19623;SDS011;9959;49.798;9.928;2023-05-07T13:40:24;3.78;;;3.25;;
19623;SDS011;9959;49.798;9.928;2023-05-07T13:42:51;3.40;;;3.10;;
19623;SDS011;9959;49.798;9.928;2023-05-07T13:45:18;4.72;;;2.92;;
19623;SDS011;9959;49.798;9.928;2023-05-07T13:47:45;6.32;;;2.90;;
19623;SDS011;9959;49.798;9.928;2023-05-07T13:50:13;4.93;;;3.00;;
19623;SDS011;9959;49.798;9.928;2023-05-07T13:52:40;3.85;;;3.55;;
19623;SDS011;9959;49.798;9.928;2023-05-07T13:55:12;3.30;;;3.00;;
19623;SDS011;9959;49.798;9.928;2023-05-07T13:57:39;3.88;;;3.58;;
19623;SDS011;9959;49.798;9.928;2023-05-07T14:00:06;3.88;;;3.10;;
19623;SDS011;9959;49.798;9.928;2023-05-07T14:02:33;3.45;;;3.10;;
19623;SDS011;9959;49.798;9.928;2023-05-07T14:05:00;3.78;;;3.47;;
19623;SDS011;9959;49.798;9.928;2023-05-07T14:07:27;3.40;;;3.10;;
19623;SDS011;9959;49.798;9.928;2023-05-07T14:09:56;3.60;;;3.15;;
19623;SDS011;9959;49.798;9.928;2023-05-07T14:12:24;3.28;;;2.97;;
19623;SDS011;9959;49.798;9.928;2023-05-07T14:14:51;3.65;;;3.35;;
19623;SDS011;9959;49.798;9.928;2023-05-07T14:17:18;3.40;;;3.10;;
19623;SDS011;9959;49.798;9.928;2023-05-07T14:19:46;3.60;;;3.30;;
19623;SDS011;9959;49.798;9.928;2023-05-07T14:22:13;5.38;;;3.33;;
19623;SDS011;9959;49.798;9.928;2023-05-07T14:24:41;3.88;;;3.58;;
19623;SDS011;9959;49.798;9.928;2023-05-07T14:27:11;3.70;;;3.38;;
19623;SDS011;9959;49.798;9.928;2023-05-07T14:29:38;3.67;;;3.38;;
19623;SDS011;9959;49.798;9.928;2023-05-07T14:32:06;3.90;;;3.60;;
19623;SDS011;9959;49.798;9.928;2023-05-07T14:34:33;4.00;;;3.67;;
19623;SDS011;9959;49.798;9.928;2023-05-07T14:37:00;3.90;;;3.60;;
19623;SDS011;9959;49.798;9.928;2023-05-07T14:39:27;3.92;;;3.63;;
19623;SDS011;9959;49.798;9.928;2023-05-07T14:41:53;4.18;;;3.88;;
19623;SDS011;9959;49.798;9.928;2023-05-07T14:44:22;3.78;;;3.47;;
19623;SDS011;9959;49.798;9.928;2023-05-07T14:46:50;5.75;;;4.30;;
19623;SDS011;9959;49.798;9.928;2023-05-07T14:49:17;5.10;;;3.88;;
19623;SDS011;9959;49.798;9.928;2023-05-07T14:51:44;6.72;;;4.20;;
19623;SDS011;9959;49.798;9.928;2023-05-07T14:54:12;5.40;;;3.70;;
19623;SDS011;9959;49.798;9.928;2023-05-07T14:56:39;4.55;;;4.10;;
19623;SDS011;9959;49.798;9.928;2023-05-07T14:59:07;5.07;;;4.30;;
19623;SDS011;9959;49.798;9.928;2023-05-07T15:01:35;6.05;;;4.63;;
19623;SDS011;9959;49.798;9.928;2023-05-07T15:04:03;6.65;;;4.78;;
19623;SDS011;9959;49.798;9.928;2023-05-07T15:06:31;5.22;;;4.72;;
19623;SDS011;9959;49.798;9.928;2023-05-07T15:08:58;4.85;;;4.18;;
19623;SDS011;9959;49.798;9.928;2023-05-07T15:11:25;5.18;;;4.50;;
19623;SDS011;9959;49.798;9.928;2023-05-07T15:13:53;6.60;;;4.38;;
19623;SDS011;9959;49.798;9.928;2023-05-07T15:16:21;7.25;;;4.53;;
19623;SDS011;9959;49.798;9.928;2023-05-07T15:18:48;5.45;;;4.43;;
19623;SDS011;9959;49.798;9.928;2023-05-07T15:21:15;5.43;;;4.22;;
19623;SDS011;9959;49.798;9.928;2023-05-07T15:23:42;5.72;;;4.75;;